createdAt,value
2019-02-03T00:17:18.176Z,96888.92
2019-02-03T00:19:48.410Z,96880.81
2019-02-03T00:28:41.057Z,96880.39
2019-02-03T00:51:24.342Z,96879.78
2019-02-03T01:04:05.294Z,96867.98
2019-02-03T01:06:35.773Z,96872.53
2019-02-03T01:15:32.253Z,96890.30
2019-02-03T01:18:01.540Z,96887.88
2019-02-03T01:26:58.364Z,96894.50
2019-02-03T01:29:28.525Z,96892.06
2019-02-03T01:31:59.657Z,96877.11
2019-02-03T01:34:29.721Z,96866.59
2019-02-03T01:36:59.875Z,96887.53
2019-02-03T01:39:29.985Z,96902.91
2019-02-03T01:41:59.923Z,96915.13
2019-02-03T01:44:29.819Z,96920.94
2019-02-03T01:47:00.002Z,96921.41
2019-02-03T01:49:29.910Z,96922.75
2019-02-03T01:51:59.824Z,96928.77
2019-02-03T01:54:29.734Z,96938.85
2019-02-03T01:56:59.631Z,96944.21
2019-02-03T01:59:29.781Z,96948.98
2019-02-03T02:01:59.692Z,96951.50
2019-02-03T02:04:29.600Z,96954.70
2019-02-03T02:07:00.695Z,96962.24
2019-02-03T02:09:31.147Z,96970.76
2019-02-03T02:12:01.260Z,96966.69
2019-02-03T02:14:31.327Z,96965.10
2019-02-03T02:17:01.305Z,96966.99
2019-02-03T02:19:31.493Z,96955.53
2019-02-03T02:22:02.216Z,96963.89
2019-02-03T02:24:32.801Z,96970.03
2019-02-03T02:27:02.943Z,96995.00
2019-02-03T02:33:24.620Z,97015.81
2019-02-03T02:35:54.598Z,97012.33
2019-02-03T02:38:24.861Z,97012.03
2019-02-03T02:40:54.825Z,97007.64
2019-02-03T02:43:25.186Z,97007.05
2019-02-03T02:45:55.601Z,97017.59
2019-02-03T02:51:51.478Z,97015.56
2019-02-03T02:54:21.918Z,97024.36
2019-02-03T02:56:52.065Z,97027.36
2019-02-03T02:59:22.029Z,97036.61
2019-02-03T03:01:52.213Z,97034.75
2019-02-03T03:04:22.383Z,97034.43
2019-02-03T03:06:52.904Z,97022.03
2019-02-03T03:09:22.971Z,97035.05
2019-02-03T03:11:53.404Z,97039.02
2019-02-03T03:14:23.905Z,97048.26
2019-02-03T03:16:54.155Z,97047.00
2019-02-03T03:19:24.338Z,97039.01
2019-02-03T03:21:54.820Z,97034.28
2019-02-03T03:24:25.362Z,97026.29
2019-02-03T03:30:47.059Z,97017.55
2019-02-03T03:33:17.975Z,97020.07
2019-02-03T04:05:08.840Z,97051.83
2019-02-03T04:35:41.675Z,97120.25
2019-02-03T04:38:11.673Z,97121.19
2019-02-03T04:40:41.907Z,97124.78
2019-02-03T04:43:12.224Z,97117.59
2019-02-03T04:45:42.494Z,97123.39
2019-02-03T04:48:12.462Z,97125.11
2019-02-03T04:50:42.466Z,97128.39
2019-02-03T04:53:12.597Z,97135.64
2019-02-03T04:55:43.028Z,97128.88
2019-02-03T04:58:12.999Z,97132.98
2019-02-03T05:00:45.849Z,97132.66
2019-02-03T05:03:15.765Z,97131.42
2019-02-03T05:05:45.986Z,97135.49
2019-02-03T05:08:16.351Z,97143.64
2019-02-03T05:10:47.289Z,97148.39
2019-02-03T05:13:17.457Z,97153.41
2019-02-03T05:15:47.921Z,97158.44
2019-02-03T05:18:18.240Z,97152.78
2019-02-03T05:20:48.383Z,97160.62
2019-02-03T05:23:19.686Z,97167.54
2019-02-03T05:25:50.146Z,97168.16
2019-02-03T05:28:20.536Z,97171.01
2019-02-03T05:30:50.906Z,97174.13
2019-02-03T05:33:21.216Z,97175.08
2019-02-03T05:35:51.177Z,97174.28
2019-02-03T05:38:21.090Z,97174.14
2019-02-03T05:40:51.098Z,97184.81
2019-02-03T05:43:21.967Z,97190.31
2019-02-03T05:45:51.904Z,97198.31
2019-02-03T05:48:21.949Z,97202.39
2019-02-03T05:50:52.390Z,97215.91
2019-02-03T05:53:23.180Z,97223.73
2019-02-03T05:55:54.187Z,97233.80
2019-02-03T05:58:24.423Z,97239.29
2019-02-03T06:00:54.588Z,97240.08
2019-02-03T06:03:24.946Z,97251.05
2019-02-03T06:05:54.932Z,97261.07
2019-02-03T06:08:25.151Z,97264.54
2019-02-03T06:10:55.107Z,97273.77
2019-02-03T06:13:25.138Z,97278.30
2019-02-03T06:15:55.274Z,97288.81
2019-02-03T06:18:27.482Z,97306.39
2019-02-03T06:20:57.916Z,97297.91
2019-02-03T06:23:27.999Z,97313.58
2019-02-03T06:25:58.449Z,97320.47
2019-02-03T06:28:28.317Z,97318.91
2019-02-03T06:31:14.378Z,97332.70
2019-02-03T06:45:21.270Z,97365.13
2019-02-03T07:02:30.452Z,97424.18
2019-02-03T07:39:44.266Z,97523.64
2019-02-03T07:42:14.866Z,97522.33
2019-02-03T07:44:45.034Z,97526.38
2019-02-03T07:47:14.935Z,97539.69
2019-02-03T07:49:45.106Z,97533.39
2019-02-03T07:52:15.442Z,97542.36
2019-02-03T07:54:45.342Z,97542.20
2019-02-03T07:57:15.305Z,97547.37
2019-02-03T07:59:45.533Z,97545.74
2019-02-03T08:02:15.502Z,97554.14
2019-02-03T08:04:45.432Z,97555.55
2019-02-03T08:07:15.741Z,97555.67
2019-02-03T08:09:45.726Z,97571.97
2019-02-03T08:12:15.698Z,97566.58
2019-02-03T08:14:45.610Z,97577.92
2019-02-03T08:17:18.244Z,97583.41
2019-02-03T08:19:48.823Z,97590.77
2019-02-03T08:22:18.871Z,97588.86
2019-02-03T08:24:49.084Z,97602.83
2019-02-03T08:27:19.477Z,97608.98
2019-02-03T08:29:49.447Z,97614.59
2019-02-03T08:32:19.625Z,97617.68
2019-02-03T08:34:49.662Z,97621.53
2019-02-03T08:37:19.846Z,97624.12
2019-02-03T08:39:50.007Z,97633.27
2019-02-03T08:42:19.989Z,97633.36
2019-02-03T08:48:41.538Z,97650.91
2019-02-03T08:51:11.778Z,97660.09
2019-02-03T08:53:42.082Z,97658.18
2019-02-03T08:56:12.225Z,97671.38
2019-02-03T08:58:42.413Z,97683.91
2019-02-03T09:01:13.375Z,97690.61
2019-02-03T09:03:43.394Z,97688.92
2019-02-03T09:06:13.730Z,97697.34
2019-02-03T09:08:43.920Z,97703.06
2019-02-03T09:11:14.251Z,97707.64
2019-02-03T09:13:44.696Z,97709.22
2019-02-03T09:16:14.611Z,97714.34
2019-02-03T09:18:44.918Z,97719.31
2019-02-03T09:21:15.019Z,97722.80
2019-02-03T09:23:51.791Z,97734.66
2019-02-03T09:26:21.691Z,97735.66
2019-02-03T09:28:52.176Z,97745.05
2019-02-03T09:31:22.154Z,97748.84
2019-02-03T09:33:52.377Z,97746.88
2019-02-03T09:36:22.716Z,97754.08
2019-02-03T09:38:57.110Z,97749.70
2019-02-03T09:41:27.418Z,97753.41
2019-02-03T09:43:57.354Z,97751.38
2019-02-03T09:46:27.755Z,97759.68
2019-02-03T10:00:35.627Z,97790.08
2019-02-03T10:10:56.070Z,97803.94
2019-02-03T10:43:32.280Z,97866.75
2019-02-03T10:56:31.653Z,97872.97
2019-02-03T11:14:31.350Z,97880.48
2019-02-03T11:17:02.087Z,97890.69
2019-02-03T11:19:32.141Z,97899.41
2019-02-03T11:22:03.617Z,97899.02
2019-02-03T11:28:25.242Z,97902.52
2019-02-03T11:30:56.248Z,97910.45
2019-02-03T11:33:26.331Z,97909.84
2019-02-03T11:35:56.843Z,97912.64
2019-02-03T11:42:11.851Z,97913.03
2019-02-03T11:44:41.800Z,97925.95
2019-02-03T11:47:12.223Z,97931.91
2019-02-03T12:03:11.152Z,97939.30
2019-02-03T12:05:41.464Z,97941.63
2019-02-03T12:08:11.535Z,97945.64
2019-02-03T12:10:41.516Z,97944.47
2019-02-03T12:13:11.468Z,97952.23
2019-02-03T12:15:41.534Z,97950.59
2019-02-03T12:18:11.582Z,97949.42
2019-02-03T12:20:41.830Z,97952.91
2019-02-03T12:23:11.970Z,97955.50
2019-02-03T12:25:42.783Z,97960.09
2019-02-03T12:28:13.079Z,97965.20
2019-02-03T12:30:42.993Z,97960.23
2019-02-03T12:44:39.785Z,97982.63
2019-02-03T12:47:09.814Z,97981.90
2019-02-03T12:49:40.023Z,97980.23
2019-02-03T12:53:22.636Z,97984.86
2019-02-03T13:22:52.566Z,98025.88
2019-02-03T13:25:22.778Z,98025.70
2019-02-03T13:27:52.814Z,98035.69
2019-02-03T14:10:34.372Z,98117.06
2019-02-03T14:20:36.971Z,98129.30
2019-02-03T14:23:07.027Z,98132.70
2019-02-03T14:25:37.960Z,98141.73
2019-02-03T14:31:53.585Z,98142.91
2019-02-03T14:34:23.656Z,98155.17
2019-02-03T14:36:54.035Z,98160.93
2019-02-03T14:47:55.713Z,98168.42
2019-02-03T14:57:56.932Z,98196.33
2019-02-03T15:00:32.662Z,98205.32
2019-02-03T15:03:07.017Z,98210.49
2019-02-03T15:05:37.439Z,98212.61
2019-02-03T15:08:08.709Z,98218.88
2019-02-03T15:10:38.937Z,98223.97
2019-02-03T15:13:13.918Z,98224.12
2019-02-03T15:15:41.673Z,98236.45
2019-02-03T15:21:56.992Z,98240.78
2019-02-03T15:24:27.220Z,98249.91
2019-02-03T15:26:57.399Z,98252.64
2019-02-03T15:29:28.394Z,98262.00
2019-02-03T15:31:58.715Z,98265.23
2019-02-03T15:34:28.957Z,98272.33
2019-02-03T15:36:59.949Z,98276.56
2019-02-03T15:39:29.943Z,98276.09
2019-02-03T15:42:00.473Z,98285.20
2019-02-03T15:44:30.486Z,98284.05
2019-02-03T15:47:01.133Z,98298.33
2019-02-03T15:49:31.094Z,98295.73
2019-02-03T15:52:02.993Z,98305.56
2019-02-03T15:54:33.546Z,98308.31
2019-02-03T15:57:03.906Z,98307.64
2019-02-03T15:59:34.106Z,98309.90
2019-02-03T16:02:04.114Z,98317.67
2019-02-03T16:04:34.010Z,98321.66
2019-02-03T16:07:04.285Z,98330.36
2019-02-03T16:09:34.216Z,98335.70
2019-02-03T16:12:05.084Z,98333.91
2019-02-03T16:14:35.648Z,98340.64
2019-02-03T16:28:28.857Z,98366.55
2019-02-03T16:30:59.039Z,98378.09
2019-02-03T16:33:29.112Z,98382.20
2019-02-03T16:35:59.285Z,98389.39
2019-02-03T16:42:13.835Z,98405.94
2019-02-03T16:44:43.747Z,98412.31
2019-02-03T16:47:13.648Z,98417.55
2019-02-03T16:53:34.963Z,98428.52
2019-02-03T16:56:05.077Z,98438.11
2019-02-03T16:58:34.996Z,98437.41
2019-02-03T17:01:05.364Z,98449.02
2019-02-03T17:03:35.269Z,98451.53
2019-02-03T17:06:05.898Z,98454.95
2019-02-03T17:08:36.118Z,98459.73
2019-02-03T17:11:06.566Z,98468.41
2019-02-03T17:13:46.886Z,98476.49
2019-02-03T17:16:17.729Z,98479.23
2019-02-03T17:18:47.917Z,98490.29
2019-02-03T17:21:17.962Z,98504.08
2019-02-03T17:23:48.002Z,98505.43
2019-02-03T17:26:18.397Z,98509.79
2019-02-03T17:28:48.640Z,98509.89
2019-02-03T17:31:18.864Z,98519.46
2019-02-03T17:37:40.110Z,98529.27
2019-02-03T17:40:11.654Z,98538.63
2019-02-03T17:42:41.893Z,98542.39
2019-02-03T17:49:04.967Z,98554.70
2019-02-03T18:09:40.928Z,98595.96
2019-02-03T18:12:11.464Z,98609.42
2019-02-03T18:14:41.593Z,98614.67
2019-02-03T18:17:12.158Z,98615.23
2019-02-03T18:19:42.503Z,98616.03
2019-02-03T18:22:12.531Z,98627.08
2019-02-03T18:24:42.533Z,98635.86
2019-02-03T18:27:12.916Z,98637.70
2019-02-03T18:33:34.448Z,98654.58
2019-02-03T18:36:05.243Z,98652.07
2019-02-03T18:38:35.239Z,98664.84
2019-02-03T18:52:28.377Z,98679.11
2019-02-03T19:05:12.865Z,98707.24
2019-02-03T19:07:43.245Z,98704.84
2019-02-03T19:10:16.866Z,98709.64
2019-02-03T19:16:31.750Z,98714.85
2019-02-03T19:19:39.364Z,98724.45
2019-02-03T19:41:42.242Z,98756.84
2019-02-03T19:53:51.123Z,98779.30
2019-02-03T20:03:40.610Z,98793.02
2019-02-03T20:06:10.915Z,98798.84
2019-02-03T20:12:47.207Z,98808.09
2019-02-03T20:22:00.808Z,98821.08
2019-02-03T20:24:31.115Z,98824.94
2019-02-03T20:34:09.433Z,98841.60
2019-02-03T20:36:39.388Z,98851.88
2019-02-03T20:39:11.877Z,98858.13
2019-02-03T20:41:42.092Z,98853.69
2019-02-03T20:44:12.375Z,98863.73
2019-02-03T20:46:42.286Z,98865.41
2019-02-03T20:49:12.274Z,98879.12
2019-02-03T20:51:42.940Z,98870.09
2019-02-03T20:54:13.428Z,98873.62
2019-02-03T20:56:44.420Z,98886.03
2019-02-03T20:59:14.560Z,98887.53
2019-02-03T21:05:17.132Z,98899.73
2019-02-03T21:18:01.913Z,98916.02
2019-02-03T21:20:33.542Z,98917.52
2019-02-03T21:23:04.120Z,98921.03
2019-02-03T21:25:34.154Z,98924.55
2019-02-03T21:28:04.983Z,98931.07
2019-02-03T21:30:40.006Z,98939.79
2019-02-03T21:33:12.762Z,98940.55
2019-02-03T21:35:43.009Z,98937.86
2019-02-03T21:38:13.064Z,98942.11
2019-02-03T21:44:34.637Z,98950.66
2019-02-03T21:57:48.701Z,98963.57
2019-02-03T22:00:27.786Z,98971.80
2019-02-03T22:02:57.809Z,98970.00
2019-02-03T22:09:19.836Z,98972.30
2019-02-03T22:11:50.580Z,98973.94
2019-02-03T22:14:20.470Z,98977.44
2019-02-03T22:30:40.630Z,98995.70
2019-02-03T22:58:40.019Z,99035.75
2019-02-03T23:01:18.316Z,99032.83
2019-02-03T23:04:24.788Z,99037.44
2019-02-03T23:10:45.447Z,99042.87
2019-02-03T23:59:42.328Z,99096.38
